Time;durP1;ratioP1;P1;durP2;ratioP2;P2;SDS_P1;SDS_P2;PMS_P1;PMS_P2;Temp;Humidity;BMP_temperature;BMP_pressure;BME280_temperature;BME280_humidity;BME280_pressure;Samples;Min_cycle;Max_cycle;Signal;HPM_P1;HPM_P2
2022/01/29 00:00:03;;;;;;;;;;;2.80;99.90;;;;;;5115541;28;19908;-47
2022/01/29 00:02:28;;;;;;;;;;;2.80;99.90;;;;;;5115247;28;19908;-46
2022/01/29 00:04:54;;;;;;;;;;;2.80;99.90;;;;;;5115318;28;20048;-48
2022/01/29 00:07:19;;;;;;;;;;;2.80;99.90;;;;;;5114420;28;19908;-48
2022/01/29 00:09:47;;;;;;;;;;;2.80;99.90;;;;;;5096866;28;20372;-47
2022/01/29 00:12:13;;;;;;;;;;;2.90;99.90;;;;;;5114864;28;20358;-45
2022/01/29 00:14:38;;;;;;;;;;;2.80;99.90;;;;;;5115157;28;19918;-47
2022/01/29 00:17:04;;;;;;;;;;;2.70;99.90;;;;;;5114974;28;20337;-46
2022/01/29 00:19:29;;;;;;;;;;;2.80;99.90;;;;;;5097218;28;19937;-44
2022/01/29 00:21:56;;;;;;;;;;;2.80;99.90;;;;;;5114986;28;19915;-45
2022/01/29 00:24:22;;;;;;;;;;;2.80;99.90;;;;;;5114856;28;19919;-48
2022/01/29 00:26:47;;;;;;;;;;;2.90;99.90;;;;;;5114621;28;19965;-46
2022/01/29 00:29:21;;;;;;;;;;;2.90;99.90;;;;;;5114680;28;20202;-49
2022/01/29 00:31:47;;;;;;;;;;;2.90;99.90;;;;;;5115086;28;19964;-44
2022/01/29 00:34:13;;;;;;;;;;;2.90;99.90;;;;;;5114900;28;19912;-46
2022/01/29 00:36:38;;;;;;;;;;;2.90;99.90;;;;;;5115026;28;19915;-46
2022/01/29 00:39:04;;;;;;;;;;;2.80;99.90;;;;;;5114612;28;19912;-44
2022/01/29 00:41:29;;;;;;;;;;;2.90;99.90;;;;;;5115202;28;20011;-46
2022/01/29 00:43:55;;;;;;;;;;;2.90;99.90;;;;;;5114831;28;19908;-46
2022/01/29 00:46:20;;;;;;;;;;;2.80;99.90;;;;;;5114647;28;19995;-44
2022/01/29 00:48:46;;;;;;;;;;;2.80;99.90;;;;;;5096177;28;20299;-44
2022/01/29 00:51:11;;;;;;;;;;;2.80;99.90;;;;;;5114232;28;19918;-44
2022/01/29 00:53:37;;;;;;;;;;;2.70;99.90;;;;;;5096411;28;20304;-45
2022/01/29 00:56:07;;;;;;;;;;;2.70;99.90;;;;;;5114405;28;20320;-47
2022/01/29 00:58:33;;;;;;;;;;;2.80;99.90;;;;;;5114796;28;20002;-44
2022/01/29 01:00:58;;;;;;;;;;;2.70;99.90;;;;;;5114341;28;19966;-45
2022/01/29 01:03:24;;;;;;;;;;;2.60;99.90;;;;;;5114618;28;19911;-47
2022/01/29 01:05:49;;;;;;;;;;;2.60;99.90;;;;;;5114086;28;20292;-43
2022/01/29 01:08:15;;;;;;;;;;;2.50;99.90;;;;;;5114002;28;19923;-45
2022/01/29 01:10:40;;;;;;;;;;;2.50;99.90;;;;;;5114122;28;19911;-46
2022/01/29 01:13:06;;;;;;;;;;;2.60;99.90;;;;;;5114369;28;19908;-45
2022/01/29 01:15:32;;;;;;;;;;;2.50;99.90;;;;;;5114151;28;19908;-47
2022/01/29 01:17:57;;;;;;;;;;;2.50;99.90;;;;;;5114626;28;19914;-46
2022/01/29 01:20:23;;;;;;;;;;;2.60;99.90;;;;;;5116619;28;20374;-46
2022/01/29 01:22:48;;;;;;;;;;;2.70;99.90;;;;;;5118428;28;20279;-49
2022/01/29 01:25:14;;;;;;;;;;;2.80;99.90;;;;;;5118797;28;19953;-47
2022/01/29 01:27:39;;;;;;;;;;;2.80;99.90;;;;;;5118471;28;19908;-48
2022/01/29 01:30:06;;;;;;;;;;;2.80;99.90;;;;;;5118839;28;19966;-48
2022/01/29 01:32:31;;;;;;;;;;;2.90;99.90;;;;;;5118158;28;19951;-45
2022/01/29 01:35:07;;;;;;;;;;;2.90;99.90;;;;;;5118392;28;19949;-47
2022/01/29 01:40:33;;;;;;;;;;;2.90;99.90;;;;;;5035321;28;19909;-47
2022/01/29 01:43:00;;;;;;;;;;;2.90;99.90;;;;;;5100994;28;19934;-44
2022/01/29 01:45:27;;;;;;;;;;;2.90;99.90;;;;;;5118295;28;19908;-45
2022/01/29 01:47:52;;;;;;;;;;;2.90;99.90;;;;;;5118316;28;20349;-44
2022/01/29 01:50:18;;;;;;;;;;;2.90;99.90;;;;;;5118266;28;19937;-47
2022/01/29 01:52:43;;;;;;;;;;;2.90;99.90;;;;;;5118066;28;20002;-47
2022/01/29 01:55:09;;;;;;;;;;;3.00;99.90;;;;;;5099849;28;19999;-50
2022/01/29 01:57:34;;;;;;;;;;;3.00;99.90;;;;;;5117607;28;19908;-46
2022/01/29 02:00:01;;;;;;;;;;;3.00;99.90;;;;;;5117628;28;19907;-48
2022/01/29 02:02:26;;;;;;;;;;;3.00;99.90;;;;;;5117853;28;19915;-46
2022/01/29 02:04:52;;;;;;;;;;;2.80;99.90;;;;;;5117495;28;19908;-47
2022/01/29 02:07:18;;;;;;;;;;;2.90;99.90;;;;;;5117395;28;19908;-48
2022/01/29 02:09:43;;;;;;;;;;;3.00;99.90;;;;;;5099370;28;19912;-46
2022/01/29 02:12:10;;;;;;;;;;;2.90;99.90;;;;;;5117351;28;20006;-45
2022/01/29 02:14:37;;;;;;;;;;;2.70;99.90;;;;;;5117638;28;19912;-45
2022/01/29 02:17:04;;;;;;;;;;;2.80;99.90;;;;;;5117573;28;19907;-48
2022/01/29 02:19:30;;;;;;;;;;;2.70;99.90;;;;;;5117614;28;20011;-47
2022/01/29 02:21:56;;;;;;;;;;;2.70;99.90;;;;;;5117663;28;19950;-49
2022/01/29 02:24:22;;;;;;;;;;;2.70;99.90;;;;;;5117245;28;20022;-46
2022/01/29 02:26:47;;;;;;;;;;;2.70;99.90;;;;;;5117556;28;19954;-46
2022/01/29 02:29:14;;;;;;;;;;;2.80;99.90;;;;;;5117313;28;20350;-44
2022/01/29 02:31:50;;;;;;;;;;;2.90;99.90;;;;;;5116845;28;19912;-48
2022/01/29 02:34:16;;;;;;;;;;;2.80;99.90;;;;;;5117226;28;19918;-47
2022/01/29 02:36:43;;;;;;;;;;;2.90;99.90;;;;;;5117335;28;19908;-44
2022/01/29 02:39:12;;;;;;;;;;;2.80;99.90;;;;;;5116893;28;19992;-44
2022/01/29 02:41:41;;;;;;;;;;;2.90;99.90;;;;;;5116939;28;19961;-45
2022/01/29 02:44:07;;;;;;;;;;;2.70;99.90;;;;;;5117448;28;19953;-43
2022/01/29 02:47:33;;;;;;;;;;;2.80;99.90;;;;;;5116583;28;19912;-45
2022/01/29 02:49:27;;;;;;;;;;;2.80;99.90;;;;;;5098870;28;20007;-46
2022/01/29 02:51:54;;;;;;;;;;;2.90;99.90;;;;;;5116661;28;19954;-44
2022/01/29 02:54:19;;;;;;;;;;;2.90;99.90;;;;;;5117008;28;20315;-44
2022/01/29 02:56:45;;;;;;;;;;;2.90;99.90;;;;;;5116698;28;19908;-46
2022/01/29 02:59:11;;;;;;;;;;;2.90;99.90;;;;;;5116886;28;19973;-44
2022/01/29 03:01:36;;;;;;;;;;;2.80;99.90;;;;;;5116727;28;20353;-44
2022/01/29 03:04:02;;;;;;;;;;;2.80;99.90;;;;;;5116308;28;20266;-46
2022/01/29 03:06:29;;;;;;;;;;;2.70;99.90;;;;;;5116379;28;19908;-46
2022/01/29 03:08:54;;;;;;;;;;;2.60;99.90;;;;;;5116695;28;20398;-44
2022/01/29 03:11:20;;;;;;;;;;;2.60;99.90;;;;;;5116613;28;19911;-44
2022/01/29 03:13:46;;;;;;;;;;;2.50;99.90;;;;;;5116227;28;20007;-45
2022/01/29 03:16:11;;;;;;;;;;;2.40;99.90;;;;;;5116190;28;19919;-44
2022/01/29 03:18:37;;;;;;;;;;;2.40;99.90;;;;;;5116381;28;20373;-44
2022/01/29 03:21:02;;;;;;;;;;;2.50;99.90;;;;;;5116688;28;19908;-45
2022/01/29 03:23:28;;;;;;;;;;;2.40;99.90;;;;;;5116308;28;19958;-45
2022/01/29 03:25:53;;;;;;;;;;;2.40;99.90;;;;;;5116608;28;19951;-44
2022/01/29 03:28:19;;;;;;;;;;;2.50;99.90;;;;;;5115811;28;19918;-46
2022/01/29 03:30:44;;;;;;;;;;;2.40;99.90;;;;;;5116248;28;20248;-46
2022/01/29 03:33:10;;;;;;;;;;;2.50;99.90;;;;;;5116574;28;19908;-47
2022/01/29 03:35:36;;;;;;;;;;;2.40;99.90;;;;;;5115791;28;19907;-44
2022/01/29 03:38:01;;;;;;;;;;;2.20;99.90;;;;;;5115797;28;19914;-46
2022/01/29 03:40:28;;;;;;;;;;;2.10;99.90;;;;;;5115972;28;20002;-44
2022/01/29 03:43:01;;;;;;;;;;;2.10;99.90;;;;;;5114759;28;19911;-48
2022/01/29 03:45:27;;;;;;;;;;;2.20;99.90;;;;;;5116030;28;19908;-48
2022/01/29 03:47:52;;;;;;;;;;;2.10;99.90;;;;;;5115445;28;19930;-45
2022/01/29 03:50:18;;;;;;;;;;;2.10;99.90;;;;;;5097422;28;19918;-46
2022/01/29 03:52:44;;;;;;;;;;;2.20;99.90;;;;;;5115703;28;19912;-46
2022/01/29 03:55:09;;;;;;;;;;;2.10;99.90;;;;;;5115678;28;20361;-44
2022/01/29 03:57:35;;;;;;;;;;;2.20;99.90;;;;;;5115320;28;19951;-44
2022/01/29 04:00:01;;;;;;;;;;;2.10;99.90;;;;;;5115482;28;19991;-47
2022/01/29 04:02:27;;;;;;;;;;;2.20;99.90;;;;;;5097301;28;20019;-44
2022/01/29 04:04:52;;;;;;;;;;;2.20;99.90;;;;;;5115285;28;20427;-44
2022/01/29 04:07:18;;;;;;;;;;;2.30;99.90;;;;;;5115437;28;20006;-46
2022/01/29 04:09:48;;;;;;;;;;;2.40;99.90;;;;;;5115343;28;19935;-44
2022/01/29 04:12:14;;;;;;;;;;;2.50;99.90;;;;;;5115658;28;19947;-45
2022/01/29 04:14:40;;;;;;;;;;;2.50;99.90;;;;;;5115012;28;19947;-44
2022/01/29 04:17:07;;;;;;;;;;;2.50;99.90;;;;;;5115059;28;19908;-44
2022/01/29 04:19:33;;;;;;;;;;;2.50;99.90;;;;;;5114807;28;19958;-44
2022/01/29 04:21:58;;;;;;;;;;;2.60;99.90;;;;;;5115316;28;19908;-45
2022/01/29 04:24:24;;;;;;;;;;;2.60;99.90;;;;;;5114898;28;19920;-44
2022/01/29 04:26:49;;;;;;;;;;;2.50;99.90;;;;;;5114860;28;19911;-45
2022/01/29 04:29:15;;;;;;;;;;;2.40;99.90;;;;;;5114729;28;19916;-46
2022/01/29 04:32:10;;;;;;;;;;;2.40;99.90;;;;;;5114146;28;20458;-47
2022/01/29 04:34:35;;;;;;;;;;;2.40;99.90;;;;;;5114727;28;20041;-46
2022/01/29 04:37:01;;;;;;;;;;;2.50;99.90;;;;;;5114768;28;19956;-46
2022/01/29 04:39:26;;;;;;;;;;;2.50;99.90;;;;;;5114839;28;19969;-43
2022/01/29 04:41:52;;;;;;;;;;;2.60;99.90;;;;;;5114715;28;19915;-44
2022/01/29 04:44:17;;;;;;;;;;;2.70;99.90;;;;;;5096442;28;19915;-49
2022/01/29 04:46:43;;;;;;;;;;;2.70;99.90;;;;;;5114474;28;19998;-47
2022/01/29 04:49:09;;;;;;;;;;;2.70;99.90;;;;;;5096339;28;19965;-47
2022/01/29 04:51:34;;;;;;;;;;;2.80;99.90;;;;;;5114920;28;19922;-44
2022/01/29 04:54:00;;;;;;;;;;;2.80;99.90;;;;;;5096119;28;19914;-46
2022/01/29 04:56:25;;;;;;;;;;;2.70;99.90;;;;;;5114338;28;19908;-49
2022/01/29 04:58:51;;;;;;;;;;;2.60;99.90;;;;;;5114440;28;20361;-48
2022/01/29 05:01:16;;;;;;;;;;;2.70;99.90;;;;;;5114237;28;19908;-47
2022/01/29 05:03:42;;;;;;;;;;;2.50;99.90;;;;;;5114308;28;19915;-44
2022/01/29 05:06:10;;;;;;;;;;;2.50;99.90;;;;;;5114406;28;20328;-47
2022/01/29 05:08:36;;;;;;;;;;;2.50;99.90;;;;;;5113946;28;19979;-47
2022/01/29 05:11:02;;;;;;;;;;;2.50;99.90;;;;;;5114290;28;19912;-50
2022/01/29 05:13:29;;;;;;;;;;;2.60;99.90;;;;;;5114366;28;19918;-44
2022/01/29 05:26:54;;;;;;;;;;;2.30;99.90;;;;;;5114003;28;20015;-45
2022/01/29 05:29:20;;;;;;;;;;;2.20;99.90;;;;;;5114265;28;20006;-44
2022/01/29 05:31:50;;;;;;;;;;;2.20;99.90;;;;;;5114529;28;19958;-43
2022/01/29 05:34:16;;;;;;;;;;;2.30;99.90;;;;;;5095073;28;20323;-50
2022/01/29 05:36:41;;;;;;;;;;;2.20;99.90;;;;;;5113723;28;20033;-48
2022/01/29 05:39:07;;;;;;;;;;;2.20;99.90;;;;;;5114549;28;19942;-44
2022/01/29 05:41:33;;;;;;;;;;;2.20;99.90;;;;;;5114242;28;19908;-47
2022/01/29 05:43:58;;;;;;;;;;;2.20;99.90;;;;;;5114255;28;19965;-45
2022/01/29 05:46:24;;;;;;;;;;;2.00;99.90;;;;;;5113769;28;19919;-48
2022/01/29 05:48:49;;;;;;;;;;;2.10;99.90;;;;;;5114059;28;19912;-43
2022/01/29 05:51:15;;;;;;;;;;;2.20;99.90;;;;;;5113300;28;19916;-44
2022/01/29 05:53:40;;;;;;;;;;;2.30;99.90;;;;;;5102635;28;19995;-45
2022/01/29 05:56:06;;;;;;;;;;;2.30;99.90;;;;;;5104116;28;19908;-44
2022/01/29 05:58:31;;;;;;;;;;;2.30;99.90;;;;;;5113555;28;20361;-45
2022/01/29 06:00:57;;;;;;;;;;;2.30;99.90;;;;;;5096826;28;19908;-45
2022/01/29 06:03:23;;;;;;;;;;;2.30;99.90;;;;;;5093560;28;19966;-45
2022/01/29 06:05:48;;;;;;;;;;;2.30;99.90;;;;;;5076973;28;19998;-45
2022/01/29 06:08:14;;;;;;;;;;;2.40;99.90;;;;;;5104911;28;19920;-45
2022/01/29 06:10:39;;;;;;;;;;;2.50;99.90;;;;;;5117316;28;19919;-42
2022/01/29 06:13:09;;;;;;;;;;;2.60;99.90;;;;;;5106622;28;20358;-43
2022/01/29 06:15:38;;;;;;;;;;;2.60;99.90;;;;;;5097163;28;19919;-45
2022/01/29 06:18:03;;;;;;;;;;;2.60;99.90;;;;;;5105587;28;19994;-46
2022/01/29 06:20:29;;;;;;;;;;;2.60;99.90;;;;;;5117560;28;19961;-44
2022/01/29 06:22:55;;;;;;;;;;;2.70;99.90;;;;;;5099081;28;19919;-44
2022/01/29 06:25:20;;;;;;;;;;;2.70;99.90;;;;;;5105630;28;19927;-47
2022/01/29 06:27:46;;;;;;;;;;;2.70;99.90;;;;;;5101514;28;19912;-44
2022/01/29 06:30:11;;;;;;;;;;;2.70;99.90;;;;;;5117001;28;19912;-45
2022/01/29 06:32:37;;;;;;;;;;;2.70;99.90;;;;;;5109226;28;20312;-46
2022/01/29 06:35:03;;;;;;;;;;;2.80;99.90;;;;;;5096808;28;19914;-44
2022/01/29 06:37:29;;;;;;;;;;;2.70;99.90;;;;;;5096389;28;20430;-45
2022/01/29 06:39:54;;;;;;;;;;;2.80;99.90;;;;;;5096557;28;20016;-48
2022/01/29 06:42:20;;;;;;;;;;;2.80;99.90;;;;;;5096301;28;19915;-44
2022/01/29 06:44:45;;;;;;;;;;;2.90;99.90;;;;;;5106153;28;20378;-48
2022/01/29 06:47:11;;;;;;;;;;;2.90;99.90;;;;;;5099436;28;19915;-45
2022/01/29 06:49:36;;;;;;;;;;;2.90;99.90;;;;;;5100166;28;19912;-46
2022/01/29 06:52:02;;;;;;;;;;;2.90;99.90;;;;;;5116288;28;19912;-45
2022/01/29 06:54:28;;;;;;;;;;;3.00;99.90;;;;;;5116835;28;20001;-44
2022/01/29 06:56:53;;;;;;;;;;;3.00;99.90;;;;;;5115494;28;19908;-45
2022/01/29 06:59:19;;;;;;;;;;;3.10;99.90;;;;;;5114420;28;19961;-45
2022/01/29 07:01:44;;;;;;;;;;;3.20;99.90;;;;;;5114477;28;19912;-44
2022/01/29 07:04:10;;;;;;;;;;;3.20;99.90;;;;;;5114518;28;19908;-47
2022/01/29 07:06:36;;;;;;;;;;;3.20;99.90;;;;;;5113924;28;20324;-45
2022/01/29 07:09:02;;;;;;;;;;;3.20;99.90;;;;;;5113946;28;19919;-44
2022/01/29 07:11:28;;;;;;;;;;;3.20;99.90;;;;;;5114211;28;19912;-45
2022/01/29 07:14:01;;;;;;;;;;;3.20;99.90;;;;;;5097565;28;19930;-45
2022/01/29 07:16:27;;;;;;;;;;;3.30;99.90;;;;;;5110279;28;20003;-44
2022/01/29 07:18:53;;;;;;;;;;;3.30;99.90;;;;;;5096596;28;19950;-45
2022/01/29 07:21:18;;;;;;;;;;;3.30;99.90;;;;;;5095501;28;19990;-43
2022/01/29 07:23:44;;;;;;;;;;;3.30;99.90;;;;;;5110293;28;20314;-45
2022/01/29 07:26:10;;;;;;;;;;;3.30;99.90;;;;;;5103172;28;19920;-44
2022/01/29 07:28:35;;;;;;;;;;;3.40;99.90;;;;;;5097606;28;19919;-46
2022/01/29 07:31:01;;;;;;;;;;;3.40;99.90;;;;;;5101227;28;19935;-45
2022/01/29 07:33:27;;;;;;;;;;;3.50;99.90;;;;;;5095526;28;19985;-44
2022/01/29 07:35:54;;;;;;;;;;;3.60;99.90;;;;;;5077196;28;19908;-44
2022/01/29 07:38:20;;;;;;;;;;;3.60;99.90;;;;;;5095235;28;19908;-45
2022/01/29 07:40:45;;;;;;;;;;;3.70;99.90;;;;;;5094984;28;19908;-46
2022/01/29 07:43:11;;;;;;;;;;;3.80;99.90;;;;;;5109589;28;19937;-48
2022/01/29 07:45:36;;;;;;;;;;;3.80;99.90;;;;;;5112102;28;19965;-45
2022/01/29 07:48:02;;;;;;;;;;;3.70;99.90;;;;;;5107877;28;20428;-49
2022/01/29 07:50:27;;;;;;;;;;;3.80;99.90;;;;;;5094138;28;19915;-47
2022/01/29 07:52:54;;;;;;;;;;;3.90;99.90;;;;;;5094206;28;20358;-44
2022/01/29 07:55:20;;;;;;;;;;;3.90;99.90;;;;;;5093870;28;19908;-45
2022/01/29 07:57:46;;;;;;;;;;;4.00;99.90;;;;;;5108416;28;19965;-47
2022/01/29 08:00:12;;;;;;;;;;;4.10;99.90;;;;;;5112640;28;19908;-45
2022/01/29 08:02:37;;;;;;;;;;;4.10;99.90;;;;;;5113249;28;20345;-45
2022/01/29 08:05:03;;;;;;;;;;;4.20;99.90;;;;;;5104671;28;19965;-46
2022/01/29 08:07:28;;;;;;;;;;;4.30;99.90;;;;;;5103482;28;20045;-48
2022/01/29 08:09:54;;;;;;;;;;;4.20;99.90;;;;;;5095079;28;19920;-46
2022/01/29 08:12:19;;;;;;;;;;;4.20;99.90;;;;;;5102852;28;19916;-45
2022/01/29 08:14:45;;;;;;;;;;;4.20;99.90;;;;;;5099601;28;19919;-43
2022/01/29 08:17:11;;;;;;;;;;;4.20;99.90;;;;;;5107798;28;20456;-46
2022/01/29 08:19:37;;;;;;;;;;;4.30;99.90;;;;;;5106270;28;19944;-41
2022/01/29 08:22:02;;;;;;;;;;;4.30;99.90;;;;;;5094183;28;19989;-42
2022/01/29 08:24:28;;;;;;;;;;;4.20;99.90;;;;;;5108242;28;19958;-45
2022/01/29 08:26:53;;;;;;;;;;;4.30;99.90;;;;;;5115059;28;19951;-42
2022/01/29 08:29:19;;;;;;;;;;;4.50;99.90;;;;;;5099077;28;19916;-43
2022/01/29 08:31:44;;;;;;;;;;;4.40;99.90;;;;;;5097544;28;20305;-45
2022/01/29 08:34:10;;;;;;;;;;;4.50;99.90;;;;;;5098200;28;20284;-42
2022/01/29 08:36:35;;;;;;;;;;;4.50;99.90;;;;;;5104662;28;20352;-42
2022/01/29 08:39:01;;;;;;;;;;;4.70;99.90;;;;;;5077894;28;19954;-41
2022/01/29 08:41:27;;;;;;;;;;;4.80;99.90;;;;;;5100121;28;19915;-43
2022/01/29 08:43:52;;;;;;;;;;;4.80;99.90;;;;;;5101256;28;20310;-42
2022/01/29 08:46:18;;;;;;;;;;;4.90;99.90;;;;;;5099116;28;19935;-47
2022/01/29 08:48:43;;;;;;;;;;;4.90;99.90;;;;;;5072167;28;20354;-47
2022/01/29 08:51:09;;;;;;;;;;;4.90;99.90;;;;;;5101315;28;20310;-48
2022/01/29 08:53:34;;;;;;;;;;;5.10;99.90;;;;;;5098794;28;19916;-49
2022/01/29 08:56:00;;;;;;;;;;;5.10;99.90;;;;;;5098333;28;19923;-45
2022/01/29 08:58:26;;;;;;;;;;;5.20;99.90;;;;;;5091281;28;20294;-47
2022/01/29 09:00:51;;;;;;;;;;;5.30;99.90;;;;;;5096737;28;19919;-46
2022/01/29 09:03:17;;;;;;;;;;;5.30;99.90;;;;;;5112018;28;19924;-45
2022/01/29 09:05:44;;;;;;;;;;;5.30;99.90;;;;;;5114440;28;19908;-46
2022/01/29 09:08:10;;;;;;;;;;;5.30;99.90;;;;;;5095828;28;20381;-45
2022/01/29 09:10:36;;;;;;;;;;;5.40;99.90;;;;;;5109150;28;20015;-45
2022/01/29 09:13:02;;;;;;;;;;;5.50;99.90;;;;;;5098110;28;19911;-46
2022/01/29 09:15:28;;;;;;;;;;;5.50;99.90;;;;;;5086550;28;19998;-48
2022/01/29 09:17:53;;;;;;;;;;;5.60;99.90;;;;;;5099885;28;19947;-49
2022/01/29 09:20:19;;;;;;;;;;;5.60;99.90;;;;;;5093656;28;19912;-46
2022/01/29 09:22:45;;;;;;;;;;;5.60;99.90;;;;;;5093940;28;19912;-48
2022/01/29 09:25:10;;;;;;;;;;;5.50;99.90;;;;;;5103221;28;19924;-47
2022/01/29 09:27:36;;;;;;;;;;;5.40;99.90;;;;;;5111585;28;19943;-45
2022/01/29 09:30:03;;;;;;;;;;;5.60;99.90;;;;;;5111107;28;19926;-45
2022/01/29 09:32:29;;;;;;;;;;;5.70;99.90;;;;;;5093131;28;19916;-43
2022/01/29 09:34:54;;;;;;;;;;;5.80;99.90;;;;;;5105263;28;19923;-46
2022/01/29 09:37:20;;;;;;;;;;;5.70;99.90;;;;;;5093514;28;19912;-44
2022/01/29 09:39:46;;;;;;;;;;;5.80;99.90;;;;;;5108799;28;20277;-45
2022/01/29 09:42:12;;;;;;;;;;;5.70;99.90;;;;;;5099437;28;19908;-45
2022/01/29 09:44:37;;;;;;;;;;;5.70;99.90;;;;;;5086725;28;19912;-44
2022/01/29 09:47:04;;;;;;;;;;;5.70;99.90;;;;;;5101218;28;19953;-46
2022/01/29 09:49:33;;;;;;;;;;;5.90;99.90;;;;;;5117428;28;19931;-45
2022/01/29 09:51:59;;;;;;;;;;;5.90;99.90;;;;;;5115480;28;19916;-47
2022/01/29 09:54:24;;;;;;;;;;;5.90;99.90;;;;;;5114607;28;19915;-45
2022/01/29 09:56:50;;;;;;;;;;;5.90;99.90;;;;;;5109480;28;19911;-43
2022/01/29 09:59:15;;;;;;;;;;;5.90;99.90;;;;;;5097851;28;19908;-44
2022/01/29 10:01:41;;;;;;;;;;;5.90;99.90;;;;;;5097589;28;19909;-46
2022/01/29 10:04:06;;;;;;;;;;;6.00;99.90;;;;;;5112850;28;19912;-46
2022/01/29 10:06:33;;;;;;;;;;;6.00;99.90;;;;;;5106632;28;19916;-45
2022/01/29 10:09:01;;;;;;;;;;;6.00;99.90;;;;;;5100861;28;19960;-46
2022/01/29 10:11:27;;;;;;;;;;;6.00;99.90;;;;;;5100104;28;19954;-48
2022/01/29 10:14:03;;;;;;;;;;;5.90;99.90;;;;;;5114670;28;19977;-45
2022/01/29 10:16:29;;;;;;;;;;;6.00;99.90;;;;;;5098738;28;20377;-44
2022/01/29 10:19:05;;;;;;;;;;;5.90;99.80;;;;;;5110522;28;19911;-50
2022/01/29 10:21:33;;;;;;;;;;;6.00;99.90;;;;;;5115388;28;19952;-47
2022/01/29 10:24:05;;;;;;;;;;;6.00;99.50;;;;;;5098586;28;20045;-45
2022/01/29 10:26:33;;;;;;;;;;;6.10;99.80;;;;;;5101197;28;19972;-45
2022/01/29 10:28:58;;;;;;;;;;;6.10;99.10;;;;;;5115154;28;19915;-44
2022/01/29 10:31:24;;;;;;;;;;;6.00;99.40;;;;;;5110481;28;20313;-48
2022/01/29 10:33:49;;;;;;;;;;;6.00;98.90;;;;;;5090708;28;19908;-44
2022/01/29 10:36:17;;;;;;;;;;;6.00;99.40;;;;;;5095305;28;19908;-45
2022/01/29 10:38:42;;;;;;;;;;;6.00;98.80;;;;;;5103269;28;19912;-44
2022/01/29 10:41:08;;;;;;;;;;;6.20;98.60;;;;;;5097728;28;19934;-44
2022/01/29 10:43:33;;;;;;;;;;;6.20;99.10;;;;;;5098822;28;20207;-47
2022/01/29 10:45:59;;;;;;;;;;;6.30;98.50;;;;;;5098103;28;20388;-47
2022/01/29 10:48:41;;;;;;;;;;;6.30;98.40;;;;;;5112577;28;20274;-46
2022/01/29 10:51:10;;;;;;;;;;;6.30;98.70;;;;;;5095713;28;19941;-46
2022/01/29 10:53:36;;;;;;;;;;;6.30;98.30;;;;;;5114271;28;19964;-46
2022/01/29 10:56:03;;;;;;;;;;;6.40;98.10;;;;;;5115949;28;19908;-44
2022/01/29 10:58:28;;;;;;;;;;;6.50;98.30;;;;;;5105763;28;19956;-50
2022/01/29 11:01:10;;;;;;;;;;;6.50;98.70;;;;;;5095412;28;20353;-42
2022/01/29 11:03:35;;;;;;;;;;;6.50;98.00;;;;;;5115558;28;19919;-46
2022/01/29 11:06:01;;;;;;;;;;;6.60;97.40;;;;;;5116087;28;19908;-47
2022/01/29 11:08:27;;;;;;;;;;;6.60;98.20;;;;;;5101297;28;19926;-45
2022/01/29 11:10:53;;;;;;;;;;;6.70;98.40;;;;;;5113663;28;19973;-47
2022/01/29 11:13:18;;;;;;;;;;;6.70;97.90;;;;;;5097390;28;19919;-46
2022/01/29 11:15:44;;;;;;;;;;;6.80;97.40;;;;;;5094826;28;19935;-47
2022/01/29 11:18:10;;;;;;;;;;;6.70;96.50;;;;;;5098700;28;19919;-44
2022/01/29 11:20:35;;;;;;;;;;;6.80;97.00;;;;;;5107814;28;19914;-45
2022/01/29 11:23:01;;;;;;;;;;;6.90;96.80;;;;;;5095935;28;19912;-46
2022/01/29 11:25:31;;;;;;;;;;;6.90;96.50;;;;;;5098230;28;19974;-46
2022/01/29 11:28:13;;;;;;;;;;;6.90;97.80;;;;;;5108190;28;19922;-46
2022/01/29 11:30:43;;;;;;;;;;;6.90;96.50;;;;;;5108561;28;19922;-44
2022/01/29 11:33:09;;;;;;;;;;;7.10;96.90;;;;;;5115155;28;19914;-46
2022/01/29 11:35:49;;;;;;;;;;;7.10;96.00;;;;;;5100814;28;19916;-46
2022/01/29 11:38:25;;;;;;;;;;;7.20;95.60;;;;;;5096703;28;19920;-47
2022/01/29 11:40:51;;;;;;;;;;;7.20;96.10;;;;;;5112665;28;19919;-45
2022/01/29 11:43:19;;;;;;;;;;;7.20;95.50;;;;;;5099603;28;19912;-48
2022/01/29 11:45:48;;;;;;;;;;;7.30;94.90;;;;;;5103926;28;19916;-53
2022/01/29 11:48:20;;;;;;;;;;;7.40;95.50;;;;;;5091386;28;19915;-45
2022/01/29 11:50:46;;;;;;;;;;;7.50;95.30;;;;;;5080339;28;19961;-45
2022/01/29 11:53:13;;;;;;;;;;;7.50;94.80;;;;;;5096457;28;20011;-51
2022/01/29 11:55:44;;;;;;;;;;;7.50;93.90;;;;;;5114436;28;19993;-48
2022/01/29 11:58:15;;;;;;;;;;;7.40;93.80;;;;;;5101069;28;19912;-47
2022/01/29 12:00:41;;;;;;;;;;;7.50;94.90;;;;;;5094957;28;19952;-49
2022/01/29 12:03:07;;;;;;;;;;;7.60;93.80;;;;;;5103957;28;19916;-50
2022/01/29 12:05:52;;;;;;;;;;;8.10;93.20;;;;;;5097143;28;19957;-49
2022/01/29 12:08:19;;;;;;;;;;;8.40;93.00;;;;;;5112147;28;19915;-43
2022/01/29 12:10:54;;;;;;;;;;;8.90;93.80;;;;;;5103847;28;19919;-46
2022/01/29 12:13:20;;;;;;;;;;;9.20;93.50;;;;;;5094189;28;19923;-49
2022/01/29 12:15:45;;;;;;;;;;;9.20;91.60;;;;;;5094578;28;19919;-47
2022/01/29 12:18:25;;;;;;;;;;;9.20;92.40;;;;;;5095683;28;20021;-51
2022/01/29 12:20:50;;;;;;;;;;;8.90;91.50;;;;;;5099247;28;19996;-51
2022/01/29 12:23:16;;;;;;;;;;;9.10;91.90;;;;;;5093880;28;20335;-49
2022/01/29 12:25:41;;;;;;;;;;;8.90;91.40;;;;;;5109092;28;19920;-50
2022/01/29 12:28:09;;;;;;;;;;;9.20;91.40;;;;;;5099858;28;19912;-46
2022/01/29 12:30:39;;;;;;;;;;;9.40;92.00;;;;;;5110982;28;19959;-46
2022/01/29 12:33:06;;;;;;;;;;;9.20;90.20;;;;;;5087655;28;19922;-45
2022/01/29 12:35:35;;;;;;;;;;;9.00;92.20;;;;;;5113325;28;19916;-42
2022/01/29 12:38:00;;;;;;;;;;;8.90;91.70;;;;;;5114199;28;20015;-43
2022/01/29 12:40:27;;;;;;;;;;;8.70;92.50;;;;;;5104929;28;19951;-49
2022/01/29 12:42:57;;;;;;;;;;;8.80;92.00;;;;;;5100918;28;19912;-50
2022/01/29 12:45:23;;;;;;;;;;;9.10;91.80;;;;;;5094606;28;20369;-42
2022/01/29 12:47:49;;;;;;;;;;;9.40;91.60;;;;;;5094626;28;20007;-47
2022/01/29 12:50:18;;;;;;;;;;;9.50;91.80;;;;;;5104663;28;20363;-45
2022/01/29 12:52:44;;;;;;;;;;;9.50;91.90;;;;;;5108089;28;19916;-44
2022/01/29 12:55:11;;;;;;;;;;;9.60;91.80;;;;;;5094806;28;19928;-46
2022/01/29 12:57:43;;;;;;;;;;;9.60;92.40;;;;;;5095074;28;19912;-43
2022/01/29 13:00:13;;;;;;;;;;;9.80;92.50;;;;;;5094015;28;19912;-44
2022/01/29 13:02:38;;;;;;;;;;;9.40;94.40;;;;;;5101644;28;20358;-46
2022/01/29 13:05:04;;;;;;;;;;;9.10;94.20;;;;;;5101608;28;19916;-44
2022/01/29 13:07:34;;;;;;;;;;;9.10;92.70;;;;;;5098466;28;20012;-44
2022/01/29 13:09:59;;;;;;;;;;;8.90;94.40;;;;;;5100404;28;20332;-43
2022/01/29 13:12:25;;;;;;;;;;;9.00;93.50;;;;;;5107885;28;19957;-42
2022/01/29 13:14:51;;;;;;;;;;;9.00;93.00;;;;;;5113030;28;19958;-42
2022/01/29 13:17:17;;;;;;;;;;;8.90;92.90;;;;;;5103501;28;19916;-43
2022/01/29 13:19:44;;;;;;;;;;;8.90;93.40;;;;;;5101985;28;19919;-44
2022/01/29 13:22:10;;;;;;;;;;;9.00;94.10;;;;;;5093814;28;19957;-47
2022/01/29 13:24:38;;;;;;;;;;;9.10;95.50;;;;;;5103837;28;19920;-44
2022/01/29 13:27:09;;;;;;;;;;;8.80;97.20;;;;;;5094336;28;20274;-44
2022/01/29 13:29:36;;;;;;;;;;;8.60;97.60;;;;;;5097935;28;19911;-44
2022/01/29 13:32:06;;;;;;;;;;;8.60;97.60;;;;;;5101539;28;19916;-43
2022/01/29 13:34:33;;;;;;;;;;;8.60;97.60;;;;;;5097201;28;20031;-46
2022/01/29 13:36:59;;;;;;;;;;;8.70;97.70;;;;;;5103716;28;20416;-47
2022/01/29 13:39:26;;;;;;;;;;;8.70;97.10;;;;;;5091450;28;19958;-48
2022/01/29 13:42:06;;;;;;;;;;;8.80;96.20;;;;;;5093929;28;19916;-50
2022/01/29 13:44:32;;;;;;;;;;;8.90;95.50;;;;;;5091972;28;19912;-52
2022/01/29 13:47:04;;;;;;;;;;;8.80;95.10;;;;;;5092286;28;20018;-49
2022/01/29 13:49:30;;;;;;;;;;;8.70;93.40;;;;;;5093459;28;19916;-44
2022/01/29 13:51:56;;;;;;;;;;;8.50;93.00;;;;;;5104155;28;20010;-44
2022/01/29 13:54:23;;;;;;;;;;;8.50;92.60;;;;;;5101630;28;19916;-48
2022/01/29 13:56:49;;;;;;;;;;;8.50;92.10;;;;;;5074802;28;19908;-44
2022/01/29 13:59:17;;;;;;;;;;;8.40;93.70;;;;;;5102609;28;19945;-49
2022/01/29 14:01:47;;;;;;;;;;;8.40;91.90;;;;;;5097035;28;20050;-44
2022/01/29 14:04:22;;;;;;;;;;;8.40;92.70;;;;;;5107474;28;19999;-46
2022/01/29 14:07:00;;;;;;;;;;;8.50;93.30;;;;;;5099363;28;19912;-46
2022/01/29 14:09:29;;;;;;;;;;;8.50;92.30;;;;;;5112418;28;19912;-45
2022/01/29 14:11:55;;;;;;;;;;;8.40;92.40;;;;;;5103533;28;20014;-44
2022/01/29 14:14:21;;;;;;;;;;;8.30;93.70;;;;;;5092960;28;19970;-46
2022/01/29 14:16:47;;;;;;;;;;;8.30;93.80;;;;;;5094389;28;19927;-44
2022/01/29 14:19:22;;;;;;;;;;;8.30;95.10;;;;;;5092289;28;19908;-47
2022/01/29 14:21:50;;;;;;;;;;;8.20;95.50;;;;;;5093860;28;20084;-47
2022/01/29 14:24:19;;;;;;;;;;;8.10;94.80;;;;;;5095398;28;20435;-45
2022/01/29 14:26:45;;;;;;;;;;;8.10;95.10;;;;;;5109026;28;19919;-46
2022/01/29 14:29:11;;;;;;;;;;;8.20;96.70;;;;;;5114201;28;20013;-44
2022/01/29 14:31:36;;;;;;;;;;;8.10;96.60;;;;;;5114193;28;20393;-45
2022/01/29 14:34:05;;;;;;;;;;;8.20;96.20;;;;;;5107358;28;19966;-45
2022/01/29 14:36:31;;;;;;;;;;;8.30;95.70;;;;;;5113678;28;19912;-45
2022/01/29 14:38:56;;;;;;;;;;;8.30;96.20;;;;;;5077535;28;20285;-46
2022/01/29 14:41:22;;;;;;;;;;;8.40;96.50;;;;;;5096570;28;19958;-45